sensor_id;sensor_type;location;lat;lon;timestamp;P1;durP1;ratioP1;P2;durP2;ratioP2
23046;SDS011;11691;51.462;6.902;2022-11-15T00:01:40;13.57;;;7.32;;
23046;SDS011;11691;51.462;6.902;2022-11-15T00:04:06;9.15;;;6.15;;
23046;SDS011;11691;51.462;6.902;2022-11-15T00:06:32;13.73;;;7.22;;
23046;SDS011;11691;51.462;6.902;2022-11-15T00:08:58;10.35;;;6.47;;
23046;SDS011;11691;51.462;6.902;2022-11-15T00:11:25;8.55;;;6.45;;
23046;SDS011;11691;51.462;6.902;2022-11-15T00:13:51;11.10;;;6.45;;
23046;SDS011;11691;51.462;6.902;2022-11-15T00:16:20;12.43;;;6.88;;
23046;SDS011;11691;51.462;6.902;2022-11-15T00:18:46;12.35;;;7.03;;
23046;SDS011;11691;51.462;6.902;2022-11-15T00:21:12;12.63;;;7.20;;
23046;SDS011;11691;51.462;6.902;2022-11-15T00:23:39;11.25;;;6.22;;
23046;SDS011;11691;51.462;6.902;2022-11-15T00:26:05;11.00;;;5.95;;
23046;SDS011;11691;51.462;6.902;2022-11-15T00:28:31;9.90;;;6.88;;
23046;SDS011;11691;51.462;6.902;2022-11-15T00:31:00;10.48;;;6.30;;
23046;SDS011;11691;51.462;6.902;2022-11-15T00:33:27;12.05;;;5.95;;
23046;SDS011;11691;51.462;6.902;2022-11-15T00:35:53;11.63;;;6.63;;
23046;SDS011;11691;51.462;6.902;2022-11-15T00:38:19;10.70;;;6.68;;
23046;SDS011;11691;51.462;6.902;2022-11-15T00:40:45;11.65;;;6.72;;
23046;SDS011;11691;51.462;6.902;2022-11-15T00:43:11;12.07;;;7.00;;
23046;SDS011;11691;51.462;6.902;2022-11-15T00:45:37;11.25;;;7.28;;
23046;SDS011;11691;51.462;6.902;2022-11-15T00:48:03;11.13;;;6.32;;
23046;SDS011;11691;51.462;6.902;2022-11-15T00:50:29;11.90;;;6.53;;
23046;SDS011;11691;51.462;6.902;2022-11-15T00:52:55;12.07;;;6.95;;
23046;SDS011;11691;51.462;6.902;2022-11-15T00:55:21;8.57;;;6.30;;
23046;SDS011;11691;51.462;6.902;2022-11-15T00:57:47;12.27;;;7.10;;
23046;SDS011;11691;51.462;6.902;2022-11-15T01:00:13;11.52;;;6.50;;
23046;SDS011;11691;51.462;6.902;2022-11-15T01:02:39;10.98;;;6.50;;
23046;SDS011;11691;51.462;6.902;2022-11-15T01:05:05;10.27;;;6.45;;
23046;SDS011;11691;51.462;6.902;2022-11-15T01:07:32;9.80;;;6.00;;
23046;SDS011;11691;51.462;6.902;2022-11-15T01:09:58;13.77;;;6.45;;
23046;SDS011;11691;51.462;6.902;2022-11-15T01:12:24;11.93;;;6.72;;
23046;SDS011;11691;51.462;6.902;2022-11-15T01:14:50;9.15;;;6.50;;
23046;SDS011;11691;51.462;6.902;2022-11-15T01:17:16;9.18;;;5.90;;
23046;SDS011;11691;51.462;6.902;2022-11-15T01:19:42;9.15;;;6.20;;
23046;SDS011;11691;51.462;6.902;2022-11-15T01:22:08;10.10;;;6.05;;
23046;SDS011;11691;51.462;6.902;2022-11-15T01:24:34;10.48;;;6.15;;
23046;SDS011;11691;51.462;6.902;2022-11-15T01:27:00;10.15;;;6.10;;
23046;SDS011;11691;51.462;6.902;2022-11-15T01:29:26;7.18;;;5.90;;
23046;SDS011;11691;51.462;6.902;2022-11-15T01:31:52;9.32;;;5.50;;
23046;SDS011;11691;51.462;6.902;2022-11-15T01:34:19;9.77;;;6.25;;
23046;SDS011;11691;51.462;6.902;2022-11-15T01:36:44;8.02;;;5.85;;
23046;SDS011;11691;51.462;6.902;2022-11-15T01:39:10;11.13;;;5.90;;
23046;SDS011;11691;51.462;6.902;2022-11-15T01:41:36;8.18;;;5.82;;
23046;SDS011;11691;51.462;6.902;2022-11-15T01:46:56;10.40;;;5.63;;
23046;SDS011;11691;51.462;6.902;2022-11-15T01:49:24;9.48;;;5.88;;
23046;SDS011;11691;51.462;6.902;2022-11-15T01:51:50;7.30;;;5.22;;
23046;SDS011;11691;51.462;6.902;2022-11-15T01:54:18;13.77;;;5.75;;
23046;SDS011;11691;51.462;6.902;2022-11-15T01:56:47;9.15;;;4.95;;
23046;SDS011;11691;51.462;6.902;2022-11-15T01:59:16;8.90;;;5.22;;
23046;SDS011;11691;51.462;6.902;2022-11-15T02:01:43;10.88;;;5.93;;
23046;SDS011;11691;51.462;6.902;2022-11-15T02:04:13;8.45;;;5.45;;
23046;SDS011;11691;51.462;6.902;2022-11-15T02:06:45;7.25;;;4.80;;
23046;SDS011;11691;51.462;6.902;2022-11-15T02:09:13;8.38;;;5.20;;
23046;SDS011;11691;51.462;6.902;2022-11-15T02:11:39;7.20;;;4.63;;
23046;SDS011;11691;51.462;6.902;2022-11-15T02:14:06;8.20;;;5.30;;
23046;SDS011;11691;51.462;6.902;2022-11-15T02:32:12;6.60;;;4.70;;
23046;SDS011;11691;51.462;6.902;2022-11-15T02:34:49;6.60;;;4.70;;
23046;SDS011;11691;51.462;6.902;2022-11-15T02:42:54;10.18;;;5.10;;
23046;SDS011;11691;51.462;6.902;2022-11-15T02:45:51;7.63;;;4.65;;
23046;SDS011;11691;51.462;6.902;2022-11-15T02:48:24;9.75;;;5.47;;
23046;SDS011;11691;51.462;6.902;2022-11-15T02:50:51;6.97;;;4.80;;
23046;SDS011;11691;51.462;6.902;2022-11-15T02:53:17;10.68;;;5.38;;
23046;SDS011;11691;51.462;6.902;2022-11-15T02:55:43;8.70;;;4.60;;
23046;SDS011;11691;51.462;6.902;2022-11-15T03:02:08;6.93;;;5.10;;
23046;SDS011;11691;51.462;6.902;2022-11-15T03:07:11;6.80;;;5.38;;
23046;SDS011;11691;51.462;6.902;2022-11-15T03:12:23;8.15;;;4.93;;
23046;SDS011;11691;51.462;6.902;2022-11-15T03:17:36;7.85;;;5.72;;
23046;SDS011;11691;51.462;6.902;2022-11-15T03:20:06;10.30;;;5.68;;
23046;SDS011;11691;51.462;6.902;2022-11-15T03:22:35;11.32;;;5.40;;
23046;SDS011;11691;51.462;6.902;2022-11-15T03:25:04;9.70;;;6.15;;
23046;SDS011;11691;51.462;6.902;2022-11-15T03:27:35;9.95;;;5.82;;
23046;SDS011;11691;51.462;6.902;2022-11-15T03:30:05;8.10;;;5.70;;
23046;SDS011;11691;51.462;6.902;2022-11-15T03:32:37;9.07;;;5.82;;
23046;SDS011;11691;51.462;6.902;2022-11-15T03:35:05;8.10;;;6.03;;
23046;SDS011;11691;51.462;6.902;2022-11-15T03:37:42;9.30;;;5.72;;
23046;SDS011;11691;51.462;6.902;2022-11-15T03:40:34;8.80;;;5.32;;
23046;SDS011;11691;51.462;6.902;2022-11-15T03:43:44;9.38;;;5.15;;
23046;SDS011;11691;51.462;6.902;2022-11-15T03:46:07;9.07;;;5.00;;
23046;SDS011;11691;51.462;6.902;2022-11-15T03:48:35;10.18;;;5.07;;
23046;SDS011;11691;51.462;6.902;2022-11-15T03:51:05;6.57;;;4.65;;
23046;SDS011;11691;51.462;6.902;2022-11-15T03:53:31;6.85;;;4.75;;
23046;SDS011;11691;51.462;6.902;2022-11-15T03:55:57;7.22;;;4.30;;
23046;SDS011;11691;51.462;6.902;2022-11-15T03:58:23;10.57;;;5.30;;
23046;SDS011;11691;51.462;6.902;2022-11-15T04:00:49;7.22;;;5.03;;
23046;SDS011;11691;51.462;6.902;2022-11-15T04:03:15;9.57;;;4.78;;
23046;SDS011;11691;51.462;6.902;2022-11-15T04:05:41;7.70;;;4.78;;
23046;SDS011;11691;51.462;6.902;2022-11-15T04:08:07;7.50;;;4.57;;
23046;SDS011;11691;51.462;6.902;2022-11-15T04:10:33;8.90;;;5.50;;
23046;SDS011;11691;51.462;6.902;2022-11-15T04:13:01;7.13;;;4.80;;
23046;SDS011;11691;51.462;6.902;2022-11-15T04:15:27;6.88;;;4.90;;
23046;SDS011;11691;51.462;6.902;2022-11-15T04:17:54;6.72;;;4.55;;
23046;SDS011;11691;51.462;6.902;2022-11-15T04:20:22;5.25;;;4.18;;
23046;SDS011;11691;51.462;6.902;2022-11-15T04:23:15;7.03;;;4.30;;
23046;SDS011;11691;51.462;6.902;2022-11-15T04:26:02;7.07;;;4.43;;
23046;SDS011;11691;51.462;6.902;2022-11-15T04:28:28;5.15;;;4.55;;
23046;SDS011;11691;51.462;6.902;2022-11-15T04:30:55;7.63;;;4.47;;
23046;SDS011;11691;51.462;6.902;2022-11-15T04:33:21;5.95;;;4.28;;
23046;SDS011;11691;51.462;6.902;2022-11-15T04:35:47;7.38;;;4.28;;
23046;SDS011;11691;51.462;6.902;2022-11-15T04:38:32;6.13;;;4.20;;
23046;SDS011;11691;51.462;6.902;2022-11-15T04:40:58;6.60;;;4.70;;
23046;SDS011;11691;51.462;6.902;2022-11-15T04:43:24;6.32;;;4.57;;
23046;SDS011;11691;51.462;6.902;2022-11-15T04:45:51;8.07;;;4.65;;
23046;SDS011;11691;51.462;6.902;2022-11-15T04:48:17;7.38;;;4.55;;
23046;SDS011;11691;51.462;6.902;2022-11-15T04:50:43;7.03;;;4.30;;
23046;SDS011;11691;51.462;6.902;2022-11-15T04:53:09;9.18;;;5.05;;
23046;SDS011;11691;51.462;6.902;2022-11-15T04:55:34;7.35;;;4.35;;
23046;SDS011;11691;51.462;6.902;2022-11-15T04:58:01;6.30;;;4.50;;
23046;SDS011;11691;51.462;6.902;2022-11-15T05:00:29;8.18;;;4.57;;
23046;SDS011;11691;51.462;6.902;2022-11-15T05:02:55;6.88;;;5.05;;
23046;SDS011;11691;51.462;6.902;2022-11-15T05:05:41;7.95;;;4.65;;
23046;SDS011;11691;51.462;6.902;2022-11-15T05:08:07;8.02;;;4.80;;
23046;SDS011;11691;51.462;6.902;2022-11-15T05:10:33;8.48;;;4.65;;
23046;SDS011;11691;51.462;6.902;2022-11-15T05:12:59;6.65;;;4.72;;
23046;SDS011;11691;51.462;6.902;2022-11-15T05:15:25;7.40;;;4.75;;
23046;SDS011;11691;51.462;6.902;2022-11-15T05:17:53;7.60;;;4.32;;
23046;SDS011;11691;51.462;6.902;2022-11-15T05:20:22;6.25;;;4.13;;
23046;SDS011;11691;51.462;6.902;2022-11-15T05:22:48;6.97;;;4.88;;
23046;SDS011;11691;51.462;6.902;2022-11-15T05:25:14;8.35;;;5.00;;
23046;SDS011;11691;51.462;6.902;2022-11-15T05:27:40;7.35;;;4.63;;
23046;SDS011;11691;51.462;6.902;2022-11-15T05:30:06;8.27;;;4.70;;
23046;SDS011;11691;51.462;6.902;2022-11-15T05:32:32;6.80;;;5.05;;
23046;SDS011;11691;51.462;6.902;2022-11-15T05:34:58;7.68;;;5.75;;
23046;SDS011;11691;51.462;6.902;2022-11-15T05:37:24;8.68;;;5.93;;
23046;SDS011;11691;51.462;6.902;2022-11-15T05:39:50;7.80;;;5.50;;
23046;SDS011;11691;51.462;6.902;2022-11-15T05:42:16;7.43;;;5.70;;
23046;SDS011;11691;51.462;6.902;2022-11-15T05:44:44;10.65;;;5.63;;
23046;SDS011;11691;51.462;6.902;2022-11-15T05:47:11;9.38;;;5.50;;
23046;SDS011;11691;51.462;6.902;2022-11-15T05:49:41;8.10;;;5.50;;
23046;SDS011;11691;51.462;6.902;2022-11-15T05:52:10;7.35;;;5.43;;
23046;SDS011;11691;51.462;6.902;2022-11-15T05:54:37;7.18;;;5.78;;
23046;SDS011;11691;51.462;6.902;2022-11-15T05:57:05;8.90;;;6.35;;
23046;SDS011;11691;51.462;6.902;2022-11-15T05:59:31;8.32;;;5.63;;
23046;SDS011;11691;51.462;6.902;2022-11-15T06:01:57;7.93;;;6.13;;
23046;SDS011;11691;51.462;6.902;2022-11-15T06:04:23;11.10;;;5.57;;
23046;SDS011;11691;51.462;6.902;2022-11-15T06:06:49;8.13;;;5.28;;
23046;SDS011;11691;51.462;6.902;2022-11-15T06:09:15;7.78;;;5.75;;
23046;SDS011;11691;51.462;6.902;2022-11-15T06:11:41;9.95;;;5.97;;
23046;SDS011;11691;51.462;6.902;2022-11-15T06:14:07;7.32;;;5.80;;
23046;SDS011;11691;51.462;6.902;2022-11-15T06:16:33;11.90;;;6.78;;
23046;SDS011;11691;51.462;6.902;2022-11-15T06:18:59;10.35;;;5.70;;
23046;SDS011;11691;51.462;6.902;2022-11-15T06:21:25;7.85;;;5.90;;
23046;SDS011;11691;51.462;6.902;2022-11-15T06:23:52;8.50;;;6.13;;
23046;SDS011;11691;51.462;6.902;2022-11-15T06:26:19;9.15;;;6.18;;
23046;SDS011;11691;51.462;6.902;2022-11-15T06:28:45;9.00;;;5.93;;
23046;SDS011;11691;51.462;6.902;2022-11-15T06:31:11;9.80;;;6.00;;
23046;SDS011;11691;51.462;6.902;2022-11-15T06:33:37;7.88;;;6.22;;
23046;SDS011;11691;51.462;6.902;2022-11-15T06:36:04;6.50;;;5.40;;
23046;SDS011;11691;51.462;6.902;2022-11-15T06:38:31;7.47;;;5.30;;
23046;SDS011;11691;51.462;6.902;2022-11-15T06:41:04;6.05;;;4.90;;
23046;SDS011;11691;51.462;6.902;2022-11-15T06:43:32;8.40;;;5.68;;
23046;SDS011;11691;51.462;6.902;2022-11-15T06:45:59;6.38;;;4.60;;
23046;SDS011;11691;51.462;6.902;2022-11-15T06:48:25;7.00;;;4.20;;
23046;SDS011;11691;51.462;6.902;2022-11-15T06:50:55;5.88;;;4.50;;
23046;SDS011;11691;51.462;6.902;2022-11-15T06:53:21;5.43;;;4.10;;
23046;SDS011;11691;51.462;6.902;2022-11-15T06:55:47;5.65;;;4.05;;
23046;SDS011;11691;51.462;6.902;2022-11-15T06:58:13;6.28;;;3.55;;
23046;SDS011;11691;51.462;6.902;2022-11-15T07:00:39;5.88;;;4.13;;
23046;SDS011;11691;51.462;6.902;2022-11-15T07:03:05;5.22;;;3.85;;
23046;SDS011;11691;51.462;6.902;2022-11-15T07:05:31;4.53;;;3.70;;
23046;SDS011;11691;51.462;6.902;2022-11-15T07:07:57;5.63;;;3.53;;
23046;SDS011;11691;51.462;6.902;2022-11-15T07:10:24;4.47;;;3.67;;
23046;SDS011;11691;51.462;6.902;2022-11-15T07:12:51;6.95;;;4.07;;
23046;SDS011;11691;51.462;6.902;2022-11-15T07:15:19;3.83;;;3.17;;
23046;SDS011;11691;51.462;6.902;2022-11-15T07:17:46;5.45;;;3.38;;
23046;SDS011;11691;51.462;6.902;2022-11-15T07:20:12;5.28;;;3.50;;
23046;SDS011;11691;51.462;6.902;2022-11-15T07:22:39;4.57;;;2.92;;
23046;SDS011;11691;51.462;6.902;2022-11-15T07:25:05;4.22;;;2.90;;
23046;SDS011;11691;51.462;6.902;2022-11-15T07:27:31;3.05;;;2.75;;
23046;SDS011;11691;51.462;6.902;2022-11-15T07:29:56;3.50;;;2.80;;
23046;SDS011;11691;51.462;6.902;2022-11-15T07:32:22;4.32;;;2.45;;
23046;SDS011;11691;51.462;6.902;2022-11-15T07:34:48;3.60;;;2.70;;
23046;SDS011;11691;51.462;6.902;2022-11-15T07:37:14;3.88;;;2.35;;
23046;SDS011;11691;51.462;6.902;2022-11-15T07:39:41;3.03;;;2.28;;
23046;SDS011;11691;51.462;6.902;2022-11-15T07:42:07;3.58;;;2.65;;
23046;SDS011;11691;51.462;6.902;2022-11-15T07:44:52;4.07;;;2.65;;
23046;SDS011;11691;51.462;6.902;2022-11-15T07:47:18;5.25;;;2.10;;
23046;SDS011;11691;51.462;6.902;2022-11-15T07:49:43;3.17;;;2.20;;
23046;SDS011;11691;51.462;6.902;2022-11-15T07:52:11;2.58;;;1.90;;
23046;SDS011;11691;51.462;6.902;2022-11-15T07:54:37;2.78;;;2.03;;
23046;SDS011;11691;51.462;6.902;2022-11-15T07:57:03;3.10;;;2.22;;
23046;SDS011;11691;51.462;6.902;2022-11-15T07:59:29;3.88;;;2.40;;
23046;SDS011;11691;51.462;6.902;2022-11-15T08:01:55;3.05;;;2.00;;
23046;SDS011;11691;51.462;6.902;2022-11-15T08:04:21;4.43;;;2.50;;
23046;SDS011;11691;51.462;6.902;2022-11-15T08:06:47;2.97;;;1.80;;
23046;SDS011;11691;51.462;6.902;2022-11-15T08:09:13;3.42;;;2.20;;
23046;SDS011;11691;51.462;6.902;2022-11-15T08:11:39;3.58;;;2.20;;
23046;SDS011;11691;51.462;6.902;2022-11-15T08:14:05;4.03;;;2.20;;
23046;SDS011;11691;51.462;6.902;2022-11-15T08:16:31;2.38;;;1.98;;
23046;SDS011;11691;51.462;6.902;2022-11-15T08:18:57;3.63;;;2.33;;
23046;SDS011;11691;51.462;6.902;2022-11-15T08:21:23;6.60;;;2.78;;
23046;SDS011;11691;51.462;6.902;2022-11-15T08:23:50;5.60;;;1.88;;
23046;SDS011;11691;51.462;6.902;2022-11-15T08:26:16;4.22;;;1.75;;
23046;SDS011;11691;51.462;6.902;2022-11-15T08:28:42;1.83;;;1.10;;
23046;SDS011;11691;51.462;6.902;2022-11-15T08:31:14;2.80;;;1.58;;
23046;SDS011;11691;51.462;6.902;2022-11-15T08:33:42;3.33;;;1.90;;
23046;SDS011;11691;51.462;6.902;2022-11-15T08:36:10;5.22;;;1.90;;
23046;SDS011;11691;51.462;6.902;2022-11-15T08:38:37;3.38;;;1.75;;
23046;SDS011;11691;51.462;6.902;2022-11-15T08:41:03;2.10;;;1.70;;
23046;SDS011;11691;51.462;6.902;2022-11-15T08:43:30;3.47;;;1.65;;
23046;SDS011;11691;51.462;6.902;2022-11-15T08:45:56;2.42;;;1.58;;
23046;SDS011;11691;51.462;6.902;2022-11-15T08:48:22;1.60;;;1.20;;
23046;SDS011;11691;51.462;6.902;2022-11-15T08:50:48;3.03;;;1.70;;
23046;SDS011;11691;51.462;6.902;2022-11-15T08:53:14;3.55;;;1.50;;
23046;SDS011;11691;51.462;6.902;2022-11-15T08:55:40;3.00;;;2.00;;
23046;SDS011;11691;51.462;6.902;2022-11-15T08:58:06;2.35;;;1.60;;
23046;SDS011;11691;51.462;6.902;2022-11-15T09:00:33;4.70;;;2.25;;
23046;SDS011;11691;51.462;6.902;2022-11-15T09:02:59;3.40;;;1.80;;
23046;SDS011;11691;51.462;6.902;2022-11-15T09:05:25;3.55;;;2.10;;
23046;SDS011;11691;51.462;6.902;2022-11-15T09:07:54;2.83;;;1.63;;
23046;SDS011;11691;51.462;6.902;2022-11-15T09:10:20;3.33;;;1.92;;
23046;SDS011;11691;51.462;6.902;2022-11-15T09:12:46;3.03;;;2.00;;
23046;SDS011;11691;51.462;6.902;2022-11-15T09:15:14;3.40;;;1.98;;
23046;SDS011;11691;51.462;6.902;2022-11-15T09:17:40;5.35;;;2.38;;
23046;SDS011;11691;51.462;6.902;2022-11-15T09:20:06;4.72;;;2.92;;
23046;SDS011;11691;51.462;6.902;2022-11-15T09:22:32;3.92;;;2.78;;
23046;SDS011;11691;51.462;6.902;2022-11-15T09:24:59;4.18;;;2.67;;
23046;SDS011;11691;51.462;6.902;2022-11-15T09:27:31;4.50;;;2.90;;
23046;SDS011;11691;51.462;6.902;2022-11-15T09:29:57;3.92;;;3.05;;
23046;SDS011;11691;51.462;6.902;2022-11-15T09:32:23;3.17;;;2.30;;
23046;SDS011;11691;51.462;6.902;2022-11-15T09:34:50;2.90;;;2.22;;
23046;SDS011;11691;51.462;6.902;2022-11-15T09:37:15;3.08;;;2.10;;
23046;SDS011;11691;51.462;6.902;2022-11-15T09:39:41;3.42;;;2.03;;
23046;SDS011;11691;51.462;6.902;2022-11-15T09:49:50;4.22;;;1.73;;
23046;SDS011;11691;51.462;6.902;2022-11-15T09:52:21;1.92;;;1.20;;
23046;SDS011;11691;51.462;6.902;2022-11-15T09:54:48;5.88;;;1.65;;
23046;SDS011;11691;51.462;6.902;2022-11-15T09:57:17;2.50;;;1.45;;
23046;SDS011;11691;51.462;6.902;2022-11-15T10:02:33;4.90;;;1.48;;
23046;SDS011;11691;51.462;6.902;2022-11-15T10:05:10;4.00;;;1.50;;
23046;SDS011;11691;51.462;6.902;2022-11-15T10:07:54;2.65;;;1.48;;
23046;SDS011;11691;51.462;6.902;2022-11-15T10:13:09;3.58;;;1.65;;
23046;SDS011;11691;51.462;6.902;2022-11-15T10:15:38;2.63;;;1.38;;
23046;SDS011;11691;51.462;6.902;2022-11-15T10:18:25;3.47;;;1.40;;
23046;SDS011;11691;51.462;6.902;2022-11-15T10:21:00;3.05;;;1.50;;
23046;SDS011;11691;51.462;6.902;2022-11-15T10:23:28;6.35;;;1.50;;
23046;SDS011;11691;51.462;6.902;2022-11-15T10:25:55;2.60;;;1.45;;
23046;SDS011;11691;51.462;6.902;2022-11-15T10:28:26;2.85;;;1.30;;
23046;SDS011;11691;51.462;6.902;2022-11-15T10:30:53;2.35;;;1.10;;
23046;SDS011;11691;51.462;6.902;2022-11-15T10:33:25;5.10;;;1.13;;
23046;SDS011;11691;51.462;6.902;2022-11-15T10:41:17;3.40;;;1.20;;
23046;SDS011;11691;51.462;6.902;2022-11-15T10:43:45;2.05;;;1.30;;
23046;SDS011;11691;51.462;6.902;2022-11-15T10:46:26;2.47;;;1.17;;
23046;SDS011;11691;51.462;6.902;2022-11-15T10:48:52;2.92;;;1.33;;
23046;SDS011;11691;51.462;6.902;2022-11-15T10:51:22;2.53;;;1.10;;
23046;SDS011;11691;51.462;6.902;2022-11-15T10:53:53;2.08;;;1.20;;
23046;SDS011;11691;51.462;6.902;2022-11-15T10:56:22;2.00;;;1.05;;
23046;SDS011;11691;51.462;6.902;2022-11-15T10:58:53;4.05;;;1.35;;
23046;SDS011;11691;51.462;6.902;2022-11-15T11:01:26;1.67;;;0.98;;
23046;SDS011;11691;51.462;6.902;2022-11-15T11:04:02;1.25;;;0.80;;
23046;SDS011;11691;51.462;6.902;2022-11-15T11:06:48;5.28;;;0.82;;
23046;SDS011;11691;51.462;6.902;2022-11-15T11:09:34;2.50;;;0.90;;
23046;SDS011;11691;51.462;6.902;2022-11-15T11:12:09;0.93;;;0.55;;
23046;SDS011;11691;51.462;6.902;2022-11-15T11:14:36;4.82;;;0.90;;
23046;SDS011;11691;51.462;6.902;2022-11-15T11:19:36;3.05;;;0.68;;
23046;SDS011;11691;51.462;6.902;2022-11-15T11:24:38;2.97;;;0.70;;
23046;SDS011;11691;51.462;6.902;2022-11-15T11:39:34;2.42;;;0.82;;
23046;SDS011;11691;51.462;6.902;2022-11-15T11:42:16;0.95;;;0.55;;
23046;SDS011;11691;51.462;6.902;2022-11-15T11:47:58;1.98;;;0.60;;
23046;SDS011;11691;51.462;6.902;2022-11-15T11:50:44;4.32;;;1.00;;
23046;SDS011;11691;51.462;6.902;2022-11-15T11:53:25;1.58;;;0.70;;
23046;SDS011;11691;51.462;6.902;2022-11-15T11:55:53;1.75;;;0.77;;
23046;SDS011;11691;51.462;6.902;2022-11-15T11:58:27;2.92;;;0.70;;
23046;SDS011;11691;51.462;6.902;2022-11-15T12:01:17;0.40;;;0.40;;
23046;SDS011;11691;51.462;6.902;2022-11-15T12:06:23;2.42;;;0.73;;
23046;SDS011;11691;51.462;6.902;2022-11-15T12:09:01;4.05;;;0.73;;
23046;SDS011;11691;51.462;6.902;2022-11-15T12:13:58;1.58;;;0.65;;
23046;SDS011;11691;51.462;6.902;2022-11-15T12:16:27;2.60;;;0.73;;
23046;SDS011;11691;51.462;6.902;2022-11-15T12:18:55;3.15;;;0.55;;
23046;SDS011;11691;51.462;6.902;2022-11-15T12:24:12;4.10;;;0.57;;
23046;SDS011;11691;51.462;6.902;2022-11-15T12:26:47;1.92;;;0.60;;
23046;SDS011;11691;51.462;6.902;2022-11-15T12:29:28;3.03;;;0.93;;
23046;SDS011;11691;51.462;6.902;2022-11-15T12:31:58;2.13;;;0.40;;
23046;SDS011;11691;51.462;6.902;2022-11-15T12:34:44;2.80;;;0.70;;
23046;SDS011;11691;51.462;6.902;2022-11-15T12:37:32;3.17;;;0.70;;
23046;SDS011;11691;51.462;6.902;2022-11-15T12:42:56;2.35;;;0.80;;
23046;SDS011;11691;51.462;6.902;2022-11-15T12:45:24;2.40;;;0.80;;
23046;SDS011;11691;51.462;6.902;2022-11-15T12:58:44;2.50;;;0.80;;
23046;SDS011;11691;51.462;6.902;2022-11-15T13:12:00;1.75;;;0.52;;
23046;SDS011;11691;51.462;6.902;2022-11-15T13:25:39;2.22;;;0.55;;
23046;SDS011;11691;51.462;6.902;2022-11-15T13:28:11;2.05;;;0.60;;
23046;SDS011;11691;51.462;6.902;2022-11-15T13:30:53;2.33;;;0.73;;
23046;SDS011;11691;51.462;6.902;2022-11-15T13:33:22;3.50;;;0.93;;
23046;SDS011;11691;51.462;6.902;2022-11-15T13:36:02;3.13;;;0.80;;
23046;SDS011;11691;51.462;6.902;2022-11-15T13:40:56;6.03;;;0.90;;
23046;SDS011;11691;51.462;6.902;2022-11-15T13:46:06;2.33;;;0.88;;
23046;SDS011;11691;51.462;6.902;2022-11-15T13:48:41;2.67;;;0.65;;
23046;SDS011;11691;51.462;6.902;2022-11-15T13:51:21;6.25;;;0.90;;
23046;SDS011;11691;51.462;6.902;2022-11-15T13:53:51;4.25;;;1.10;;
23046;SDS011;11691;51.462;6.902;2022-11-15T13:56:19;7.25;;;0.73;;
23046;SDS011;11691;51.462;6.902;2022-11-15T13:58:46;3.95;;;0.80;;
23046;SDS011;11691;51.462;6.902;2022-11-15T14:01:18;3.42;;;1.00;;
23046;SDS011;11691;51.462;6.902;2022-11-15T14:03:48;3.58;;;0.70;;
23046;SDS011;11691;51.462;6.902;2022-11-15T14:06:15;3.70;;;0.80;;
23046;SDS011;11691;51.462;6.902;2022-11-15T14:08:57;2.50;;;0.75;;
23046;SDS011;11691;51.462;6.902;2022-11-15T14:11:23;2.97;;;0.82;;
23046;SDS011;11691;51.462;6.902;2022-11-15T14:24:30;1.60;;;0.68;;
23046;SDS011;11691;51.462;6.902;2022-11-15T14:26:57;4.63;;;0.90;;
23046;SDS011;11691;51.462;6.902;2022-11-15T14:29:40;4.93;;;0.70;;
23046;SDS011;11691;51.462;6.902;2022-11-15T14:32:12;5.88;;;1.02;;
23046;SDS011;11691;51.462;6.902;2022-11-15T14:34:49;2.92;;;0.93;;
23046;SDS011;11691;51.462;6.902;2022-11-15T14:37:27;4.30;;;0.88;;
23046;SDS011;11691;51.462;6.902;2022-11-15T14:39:54;1.60;;;0.75;;
23046;SDS011;11691;51.462;6.902;2022-11-15T14:42:20;3.97;;;0.80;;
23046;SDS011;11691;51.462;6.902;2022-11-15T14:44:46;2.75;;;0.90;;
23046;SDS011;11691;51.462;6.902;2022-11-15T14:47:13;2.00;;;0.50;;
23046;SDS011;11691;51.462;6.902;2022-11-15T14:49:39;3.35;;;0.80;;
23046;SDS011;11691;51.462;6.902;2022-11-15T14:52:27;3.47;;;0.98;;
23046;SDS011;11691;51.462;6.902;2022-11-15T14:54:52;2.55;;;1.00;;
23046;SDS011;11691;51.462;6.902;2022-11-15T14:57:18;3.28;;;1.08;;
23046;SDS011;11691;51.462;6.902;2022-11-15T14:59:45;4.10;;;1.13;;
23046;SDS011;11691;51.462;6.902;2022-11-15T15:02:15;3.75;;;1.15;;
23046;SDS011;11691;51.462;6.902;2022-11-15T15:04:43;5.07;;;1.30;;
23046;SDS011;11691;51.462;6.902;2022-11-15T15:07:09;3.22;;;1.13;;
23046;SDS011;11691;51.462;6.902;2022-11-15T15:09:35;3.03;;;1.40;;
23046;SDS011;11691;51.462;6.902;2022-11-15T15:12:01;5.80;;;1.50;;
23046;SDS011;11691;51.462;6.902;2022-11-15T15:14:27;3.78;;;1.30;;
23046;SDS011;11691;51.462;6.902;2022-11-15T15:16:53;3.88;;;1.27;;
23046;SDS011;11691;51.462;6.902;2022-11-15T15:19:19;3.13;;;1.50;;
23046;SDS011;11691;51.462;6.902;2022-11-15T15:21:45;3.35;;;1.50;;
23046;SDS011;11691;51.462;6.902;2022-11-15T15:24:13;4.82;;;1.48;;
23046;SDS011;11691;51.462;6.902;2022-11-15T15:26:42;3.85;;;1.52;;
23046;SDS011;11691;51.462;6.902;2022-11-15T15:29:08;3.13;;;1.48;;
23046;SDS011;11691;51.462;6.902;2022-11-15T15:31:34;2.38;;;1.35;;
23046;SDS011;11691;51.462;6.902;2022-11-15T15:34:00;4.07;;;1.60;;
23046;SDS011;11691;51.462;6.902;2022-11-15T15:36:26;1.77;;;1.30;;
23046;SDS011;11691;51.462;6.902;2022-11-15T15:38:52;1.90;;;1.33;;
23046;SDS011;11691;51.462;6.902;2022-11-15T15:41:18;1.98;;;1.27;;
23046;SDS011;11691;51.462;6.902;2022-11-15T15:43:44;2.40;;;1.35;;
23046;SDS011;11691;51.462;6.902;2022-11-15T15:46:11;1.95;;;1.52;;
23046;SDS011;11691;51.462;6.902;2022-11-15T15:48:37;2.50;;;1.55;;
23046;SDS011;11691;51.462;6.902;2022-11-15T15:51:04;3.78;;;1.40;;
23046;SDS011;11691;51.462;6.902;2022-11-15T15:53:30;2.13;;;1.27;;
23046;SDS011;11691;51.462;6.902;2022-11-15T15:55:56;1.98;;;1.38;;
23046;SDS011;11691;51.462;6.902;2022-11-15T15:58:22;2.70;;;1.60;;
23046;SDS011;11691;51.462;6.902;2022-11-15T16:00:48;2.13;;;1.20;;
23046;SDS011;11691;51.462;6.902;2022-11-15T16:03:14;2.92;;;1.23;;
23046;SDS011;11691;51.462;6.902;2022-11-15T16:05:40;2.60;;;1.45;;
23046;SDS011;11691;51.462;6.902;2022-11-15T16:08:12;3.42;;;1.30;;
23046;SDS011;11691;51.462;6.902;2022-11-15T16:10:43;5.97;;;1.42;;
23046;SDS011;11691;51.462;6.902;2022-11-15T16:13:09;2.25;;;1.52;;
23046;SDS011;11691;51.462;6.902;2022-11-15T16:15:35;2.80;;;1.30;;
23046;SDS011;11691;51.462;6.902;2022-11-15T16:18:01;2.17;;;1.33;;
23046;SDS011;11691;51.462;6.902;2022-11-15T16:20:31;4.57;;;1.45;;
23046;SDS011;11691;51.462;6.902;2022-11-15T16:23:03;3.78;;;1.25;;
23046;SDS011;11691;51.462;6.902;2022-11-15T16:25:30;5.55;;;1.58;;
23046;SDS011;11691;51.462;6.902;2022-11-15T16:27:57;2.40;;;1.33;;
23046;SDS011;11691;51.462;6.902;2022-11-15T16:30:23;3.08;;;1.40;;
23046;SDS011;11691;51.462;6.902;2022-11-15T16:32:49;2.63;;;1.50;;
23046;SDS011;11691;51.462;6.902;2022-11-15T16:35:15;4.18;;;1.20;;
23046;SDS011;11691;51.462;6.902;2022-11-15T16:37:42;3.85;;;1.50;;
23046;SDS011;11691;51.462;6.902;2022-11-15T16:42:37;3.03;;;1.50;;
23046;SDS011;11691;51.462;6.902;2022-11-15T16:45:03;3.35;;;1.25;;
23046;SDS011;11691;51.462;6.902;2022-11-15T16:47:28;4.40;;;1.40;;
23046;SDS011;11691;51.462;6.902;2022-11-15T16:49:54;3.10;;;1.40;;
23046;SDS011;11691;51.462;6.902;2022-11-15T16:52:20;4.00;;;1.40;;
23046;SDS011;11691;51.462;6.902;2022-11-15T16:54:46;1.58;;;1.25;;
23046;SDS011;11691;51.462;6.902;2022-11-15T16:57:12;2.45;;;1.30;;
23046;SDS011;11691;51.462;6.902;2022-11-15T16:59:38;2.47;;;1.50;;
23046;SDS011;11691;51.462;6.902;2022-11-15T17:02:07;4.72;;;1.33;;
23046;SDS011;11691;51.462;6.902;2022-11-15T17:04:36;1.70;;;1.20;;
23046;SDS011;11691;51.462;6.902;2022-11-15T17:07:02;4.30;;;1.30;;
23046;SDS011;11691;51.462;6.902;2022-11-15T17:09:28;3.17;;;1.40;;
23046;SDS011;11691;51.462;6.902;2022-11-15T17:11:54;1.88;;;1.10;;